createdAt,value
2023-05-14T17:48:42.517Z,101902.59
2023-05-14T17:51:15.347Z,101908.11
2023-05-14T17:53:55.504Z,101906.06
2023-05-14T17:56:30.356Z,101905.17
2023-05-14T17:59:05.886Z,101905.64
2023-05-14T18:01:42.249Z,101904.95
2023-05-14T18:04:13.535Z,101904.68
2023-05-14T18:07:10.577Z,101904.61
2023-05-14T18:09:41.512Z,101911.23
2023-05-14T18:12:20.636Z,101910.33
2023-05-14T18:14:52.815Z,101916.00
2023-05-14T18:17:23.015Z,101916.77
2023-05-14T18:20:11.718Z,101919.77
2023-05-14T18:22:43.294Z,101920.88
2023-05-14T18:25:14.665Z,101920.83
2023-05-14T18:27:48.589Z,101924.96
2023-05-14T18:30:18.823Z,101928.71
2023-05-14T18:32:57.382Z,101923.81
2023-05-14T18:35:31.787Z,101921.95
2023-05-14T18:38:02.932Z,101918.27
2023-05-14T18:40:32.527Z,101919.02
2023-05-14T18:43:02.121Z,101914.52
2023-05-14T18:45:31.533Z,101919.36
2023-05-14T18:48:10.884Z,101918.02
2023-05-14T18:50:43.234Z,101918.77
2023-05-14T18:53:13.841Z,101916.41
2023-05-14T18:55:44.417Z,101912.13
2023-05-14T18:58:14.786Z,101909.08
2023-05-14T19:00:44.172Z,101903.97
2023-05-14T19:03:24.174Z,101906.22
2023-05-14T19:05:54.570Z,101907.82
2023-05-14T19:08:24.292Z,101906.14
2023-05-14T19:10:53.917Z,101907.20
2023-05-14T19:13:25.480Z,101907.38
2023-05-14T19:15:56.279Z,101905.81
2023-05-14T19:18:28.024Z,101901.95
2023-05-14T19:21:03.534Z,101897.05
2023-05-14T19:23:33.577Z,101894.52
2023-05-14T19:26:04.279Z,101894.48
2023-05-14T19:28:34.177Z,101895.84
2023-05-14T19:31:07.500Z,101891.77
2023-05-14T19:33:36.888Z,101889.25
2023-05-14T19:36:06.578Z,101881.05
2023-05-14T19:38:40.608Z,101876.03
2023-05-14T19:41:12.156Z,101875.34
2023-05-14T19:43:42.749Z,101873.63
2023-05-14T19:46:16.867Z,101865.83
2023-05-14T19:48:52.678Z,101859.44
2023-05-14T19:51:50.866Z,101858.23
2023-05-14T19:54:28.539Z,101859.90
2023-05-14T19:56:59.284Z,101852.54
2023-05-14T19:59:30.673Z,101845.15
2023-05-14T20:02:01.635Z,101836.81
2023-05-14T20:04:31.291Z,101830.13
2023-05-14T20:07:15.850Z,101821.95
2023-05-14T20:09:48.008Z,101822.30
2023-05-14T20:12:21.102Z,101815.92
2023-05-14T20:14:51.617Z,101810.30
2023-05-14T20:17:22.075Z,101803.08
2023-05-14T20:19:55.170Z,101798.95
2023-05-14T20:22:24.659Z,101804.22
2023-05-14T20:24:56.513Z,101800.55
2023-05-14T20:27:27.648Z,101793.95
2023-05-14T20:29:57.169Z,101793.05
2023-05-14T20:32:29.532Z,101793.42
2023-05-14T20:35:02.408Z,101787.22
2023-05-14T20:37:33.375Z,101785.96
2023-05-14T20:40:16.737Z,101788.92
2023-05-14T20:42:46.271Z,101787.29
2023-05-14T20:45:36.564Z,101791.43
2023-05-14T20:48:10.290Z,101800.57
2023-05-14T20:50:39.923Z,101800.84
2023-05-14T20:53:14.853Z,101800.52
2023-05-14T20:55:49.620Z,101804.80
2023-05-14T20:58:21.041Z,101803.02
2023-05-14T21:00:58.588Z,101806.84
2023-05-14T21:03:31.405Z,101804.53
2023-05-14T21:06:04.643Z,101801.52
2023-05-14T21:08:45.025Z,101797.91
2023-05-14T21:11:15.714Z,101794.85
2023-05-14T21:13:45.973Z,101791.02
2023-05-14T21:16:42.749Z,101790.77
2023-05-14T21:19:13.353Z,101786.70
2023-05-14T21:21:45.820Z,101783.36
2023-05-14T21:24:17.531Z,101784.35
2023-05-14T21:26:52.227Z,101785.20
2023-05-14T21:29:34.252Z,101778.70
2023-05-14T21:32:17.184Z,101773.20
2023-05-14T21:34:49.783Z,101763.10
2023-05-14T21:37:19.763Z,101759.27
2023-05-14T21:39:49.188Z,101752.16
2023-05-14T21:42:21.561Z,101751.42
2023-05-14T21:44:56.388Z,101742.48
2023-05-14T21:47:27.806Z,101737.73
2023-05-14T21:49:57.643Z,101738.67
2023-05-14T21:52:49.909Z,101738.91
2023-05-14T21:56:55.771Z,101743.53
2023-05-14T22:46:53.504Z,101667.20
2023-05-14T22:50:02.673Z,101665.66
2023-05-14T22:52:36.130Z,101665.77
2023-05-14T22:55:11.200Z,101662.24
2023-05-14T22:57:40.821Z,101658.03
2023-05-14T23:00:11.881Z,101648.66
2023-05-14T23:02:50.768Z,101646.20
2023-05-14T23:05:25.794Z,101651.39
2023-05-14T23:07:58.615Z,101653.66
2023-05-14T23:10:30.114Z,101652.77
2023-05-14T23:13:00.188Z,101649.58
2023-05-14T23:15:32.845Z,101648.31
2023-05-14T23:18:02.473Z,101649.10
2023-05-14T23:20:32.190Z,101647.86
2023-05-14T23:23:01.896Z,101644.11
2023-05-14T23:25:32.950Z,101641.40
2023-05-14T23:28:04.394Z,101634.85
2023-05-14T23:30:37.632Z,101629.66
2023-05-14T23:33:08.743Z,101630.23
2023-05-14T23:35:39.464Z,101631.05
2023-05-14T23:38:18.330Z,101628.21
2023-05-14T23:40:55.593Z,101625.70
2023-05-14T23:43:51.120Z,101622.08
2023-05-14T23:46:35.281Z,101623.48
2023-05-14T23:49:06.801Z,101620.05
2023-05-14T23:51:43.172Z,101620.68
2023-05-14T23:54:17.511Z,101619.18
2023-05-14T23:56:47.384Z,101612.36
2023-05-14T23:59:16.818Z,101613.08
